Time;durP1;ratioP1;P1;durP2;ratioP2;P2;SDS_P1;SDS_P2;PMS_P1;PMS_P2;Temp;Humidity;BMP_temperature;BMP_pressure;BME280_temperature;BME280_humidity;BME280_pressure;Samples;Min_cycle;Max_cycle;Signal;HPM_P1;HPM_P2
2022/03/01 00:00:34;;;;;;;10.60;5.67;;;;;;;2.06;49.65;102016.87;5426799;32;34203;-63
2022/03/01 00:03:37;;;;;;;12.93;5.50;;;;;;;2.50;48.69;102012.63;5410150;32;35396;-64
2022/03/01 00:06:39;;;;;;;12.67;5.67;;;;;;;2.75;47.56;102007.91;5420653;32;34218;-64
2022/03/01 00:09:41;;;;;;;12.53;5.70;;;;;;;2.27;48.84;102006.09;5407642;32;42948;-63
2022/03/01 00:12:43;;;;;;;9.93;5.10;;;;;;;2.36;48.90;102016.66;5413221;32;35501;-80
2022/03/01 00:15:46;;;;;;;12.90;6.03;;;;;;;1.85;50.15;102022.47;5388017;32;34918;-80
2022/03/01 00:18:48;;;;;;;13.90;5.90;;;;;;;2.18;49.23;102015.44;5391619;32;35115;-74
2022/03/01 00:21:50;;;;;;;11.97;6.20;;;;;;;2.27;49.44;102019.97;5415654;32;35390;-64
2022/03/01 00:24:52;;;;;;;11.77;5.73;;;;;;;2.77;47.38;102014.91;5397974;32;34707;-80
2022/03/01 00:27:54;;;;;;;14.20;5.50;;;;;;;2.44;48.58;102009.91;5428218;32;34704;-63
2022/03/01 00:30:56;;;;;;;10.90;5.07;;;;;;;2.30;48.86;102008.75;5414518;32;34292;-63
2022/03/01 00:33:59;;;;;;;14.13;5.53;;;;;;;2.32;48.82;102012.25;5413136;32;34578;-64
2022/03/01 00:37:01;;;;;;;12.73;6.10;;;;;;;1.88;50.16;102012.19;5407974;32;35363;-64
2022/03/01 00:40:04;;;;;;;13.93;5.43;;;;;;;2.41;48.69;102015.03;5400912;32;34490;-73
2022/03/01 00:43:06;;;;;;;13.52;5.07;;;;;;;1.85;50.22;102012.97;5408613;32;35368;-80
2022/03/01 00:46:08;;;;;;;12.50;5.00;;;;;;;2.60;48.43;102004.19;5390839;32;34609;-73
2022/03/01 00:49:11;;;;;;;12.87;5.33;;;;;;;1.98;49.79;102010.66;5412538;32;44835;-80
2022/03/01 00:52:13;;;;;;;11.37;5.13;;;;;;;2.61;47.89;101998.12;5402592;32;35323;-80
2022/03/01 00:55:15;;;;;;;11.70;5.47;;;;;;;2.03;49.19;101996.97;5412942;32;34431;-71
2022/03/01 00:58:17;;;;;;;11.23;5.30;;;;;;;1.70;50.54;102011.78;5395378;32;35441;-63
2022/03/01 01:01:20;;;;;;;12.90;5.70;;;;;;;2.12;49.26;101996.25;5384191;32;37689;-65
2022/03/01 01:04:22;;;;;;;10.80;5.17;;;;;;;2.42;48.67;101991.72;5407399;32;35523;-80
2022/03/01 01:07:25;;;;;;;11.37;5.60;;;;;;;2.09;49.17;101988.44;5390756;32;34998;-81
2022/03/01 01:10:27;;;;;;;9.90;4.90;;;;;;;1.65;50.76;101998.69;5405810;32;34585;-66
2022/03/01 01:13:30;;;;;;;8.63;4.77;;;;;;;2.31;49.12;101998.41;5409346;32;34257;-72
2022/03/01 01:16:32;;;;;;;11.47;5.10;;;;;;;1.93;49.99;102001.91;5395973;32;35171;-63
2022/03/01 01:19:34;;;;;;;9.83;5.03;;;;;;;2.44;48.67;101991.72;5409594;32;34192;-82
2022/03/01 01:22:39;;;;;;;10.83;5.70;;;;;;;2.26;48.31;101992.25;5408188;32;34664;-64
2022/03/01 01:25:42;;;;;;;10.97;4.73;;;;;;;2.38;48.71;101997.72;5413713;32;44425;-82
2022/03/01 01:28:44;;;;;;;10.00;4.90;;;;;;;2.55;47.95;101992.81;5405559;32;34837;-80
2022/03/01 01:31:49;;;;;;;14.37;5.60;;;;;;;1.80;49.29;101995.56;5401453;32;34528;-63
2022/03/01 01:34:52;;;;;;;11.50;4.67;;;;;;;1.68;50.32;101993.59;5420656;32;34511;-65
2022/03/01 01:37:55;;;;;;;10.52;5.18;;;;;;;1.85;49.76;102001.72;5426200;32;35919;-73
2022/03/01 01:40:57;;;;;;;11.43;5.50;;;;;;;1.90;49.86;102003.59;5391768;32;35127;-72
2022/03/01 01:44:07;;;;;;;10.07;4.80;;;;;;;1.65;50.40;101990.91;5391375;32;34630;-80
2022/03/01 01:47:10;;;;;;;10.60;4.80;;;;;;;2.08;49.10;101986.69;5416455;32;37028;-64
2022/03/01 01:50:13;;;;;;;12.32;5.40;;;;;;;1.55;50.51;102010.56;5421590;32;44967;-63
2022/03/01 01:53:16;;;;;;;10.17;4.70;;;;;;;1.71;50.33;101996.25;5418223;32;34870;-72
2022/03/01 01:56:18;;;;;;;9.57;4.80;;;;;;;1.48;50.19;101993.13;5409667;32;36637;-63
2022/03/01 01:59:20;;;;;;;10.00;4.43;;;;;;;1.76;49.73;101978.22;5421514;32;34010;-64
2022/03/01 02:02:24;;;;;;;11.63;4.80;;;;;;;2.30;48.78;101977.62;5407755;32;35405;-64
2022/03/01 02:05:27;;;;;;;10.38;4.20;;;;;;;2.23;48.21;101979.22;5402913;32;35353;-64
2022/03/01 02:08:33;;;;;;;10.23;4.80;;;;;;;2.69;47.11;101973.19;5423329;32;35375;-63
2022/03/01 02:11:35;;;;;;;11.37;4.40;;;;;;;2.09;48.59;101978.06;5410295;32;34677;-73
2022/03/01 02:14:39;;;;;;;10.57;3.93;;;;;;;1.78;49.34;101981.69;5420344;32;34297;-63
2022/03/01 02:17:42;;;;;;;10.93;4.68;;;;;;;2.29;47.71;101978.47;5393307;32;44199;-80
2022/03/01 02:20:44;;;;;;;9.77;4.83;;;;;;;1.76;49.16;101981.69;5395710;32;34637;-81
2022/03/01 02:23:46;;;;;;;26.80;6.13;;;;;;;1.82;48.87;101975.75;5415534;32;34481;-63
2022/03/01 02:26:48;;;;;;;11.97;4.87;;;;;;;1.92;48.31;101975.09;5410062;32;34525;-81
2022/03/01 02:29:50;;;;;;;9.43;4.17;;;;;;;1.78;48.58;101976.53;5436145;32;35520;-81
2022/03/01 02:32:52;;;;;;;10.03;4.60;;;;;;;1.99;48.64;101976.97;5426402;32;34559;-80
2022/03/01 02:35:54;;;;;;;9.70;4.13;;;;;;;2.35;47.54;101970.81;5413550;32;35452;-80
2022/03/01 02:38:57;;;;;;;10.17;4.87;;;;;;;1.79;48.51;101980.84;5412149;32;35141;-64
2022/03/01 02:41:59;;;;;;;9.10;4.30;;;;;;;1.62;48.94;101971.00;5386852;32;34466;-79
2022/03/01 02:45:02;;;;;;;9.73;4.13;;;;;;;1.68;48.81;101980.62;5402389;32;34354;-64
2022/03/01 02:48:04;;;;;;;8.83;3.93;;;;;;;1.91;48.02;101975.94;5416487;32;34754;-63
2022/03/01 02:51:06;;;;;;;11.13;4.63;;;;;;;1.18;49.72;101977.72;5413086;32;34769;-63
2022/03/01 02:54:08;;;;;;;10.93;4.60;;;;;;;1.34;49.88;101976.37;5396925;32;34280;-63
2022/03/01 02:57:13;;;;;;;11.80;4.70;;;;;;;1.51;49.19;101967.28;5392625;32;45248;-80
2022/03/01 03:00:15;;;;;;;10.80;3.83;;;;;;;1.40;49.63;101966.16;5393407;32;35051;-63
2022/03/01 03:03:17;;;;;;;10.83;4.10;;;;;;;1.73;48.63;101967.75;5398924;32;34529;-80
2022/03/01 03:06:20;;;;;;;8.90;4.20;;;;;;;1.74;48.39;101957.44;5408052;32;34583;-81
2022/03/01 03:09:23;;;;;;;12.03;4.20;;;;;;;1.37;48.92;101962.63;5406622;32;34625;-63
2022/03/01 03:12:25;;;;;;;8.93;4.22;;;;;;;1.65;48.69;101966.72;5409709;32;37314;-81
2022/03/01 03:15:27;;;;;;;8.33;3.70;;;;;;;1.25;49.51;101964.09;5399010;32;34842;-64
2022/03/01 03:18:30;;;;;;;10.13;4.27;;;;;;;1.31;49.40;101968.53;5410589;32;34762;-63
2022/03/01 03:21:36;;;;;;;8.30;3.80;;;;;;;1.55;48.51;101966.53;5405584;32;35104;-72
2022/03/01 03:24:39;;;;;;;8.53;3.60;;;;;;;1.79;48.04;101975.66;5414580;32;35059;-73
2022/03/01 03:27:41;;;;;;;10.30;4.03;;;;;;;1.23;48.88;101968.34;5420153;32;46128;-64
2022/03/01 03:30:43;;;;;;;10.80;3.67;;;;;;;1.49;48.02;101966.38;5406084;32;33836;-63
2022/03/01 03:33:46;;;;;;;8.33;3.67;;;;;;;1.71;47.75;101972.03;5420111;32;34882;-80
2022/03/01 03:36:48;;;;;;;11.93;3.50;;;;;;;1.70;47.55;101970.28;5424570;32;34574;-72
2022/03/01 03:39:50;;;;;;;9.57;3.90;;;;;;;1.73;46.81;101972.94;5389261;32;34326;-64
2022/03/01 03:42:52;;;;;;;7.63;3.53;;;;;;;1.66;47.48;101971.06;5406600;32;34698;-74
2022/03/01 03:45:54;;;;;;;10.37;4.13;;;;;;;1.44;47.91;101965.41;5404049;32;34686;-62
2022/03/01 03:48:57;;;;;;;8.70;3.93;;;;;;;1.64;47.30;101973.63;5419327;32;35253;-62
2022/03/01 03:51:59;;;;;;;10.97;3.73;;;;;;;1.62;47.60;101971.00;5423818;32;34690;-81
2022/03/01 03:55:01;;;;;;;7.60;3.60;;;;;;;1.69;47.03;101966.84;5417644;32;34765;-73
2022/03/01 03:58:03;;;;;;;9.27;3.83;;;;;;;1.42;47.84;101963.59;5400376;32;34216;-81
2022/03/01 04:01:05;;;;;;;8.60;3.80;;;;;;;1.22;48.42;101971.75;5409022;32;34160;-62
2022/03/01 04:04:08;;;;;;;11.40;3.90;;;;;;;0.99;49.03;101968.63;5421604;32;34828;-81
2022/03/01 04:07:10;;;;;;;9.93;3.80;;;;;;;1.48;48.17;101966.31;5423125;32;44369;-81
2022/03/01 04:10:13;;;;;;;9.70;3.53;;;;;;;1.22;48.63;101952.75;5433247;32;34529;-81
2022/03/01 04:13:15;;;;;;;10.03;3.77;;;;;;;1.13;48.66;101966.38;5422364;32;34470;-64
2022/03/01 04:16:17;;;;;;;7.77;3.53;;;;;;;1.32;48.53;101963.38;5409667;32;34398;-74
2022/03/01 04:19:20;;;;;;;12.10;3.80;;;;;;;1.66;47.23;101963.28;5404864;32;35359;-64
2022/03/01 04:22:22;;;;;;;8.93;4.00;;;;;;;1.41;48.23;101959.25;5409389;32;34118;-64
2022/03/01 04:25:24;;;;;;;8.83;4.20;;;;;;;1.24;48.21;101956.28;5429935;32;34800;-64
2022/03/01 04:28:27;;;;;;;9.83;4.10;;;;;;;1.69;47.38;101972.03;5410357;32;34758;-80
2022/03/01 04:31:29;;;;;;;9.77;4.23;;;;;;;1.64;47.52;101965.84;5433845;32;34125;-65
2022/03/01 04:34:31;;;;;;;8.67;4.10;;;;;;;1.70;47.24;101966.00;5409569;32;34194;-63
2022/03/01 04:37:38;;;;;;;7.97;3.70;;;;;;;1.79;46.82;101963.59;5434368;32;34465;-80
2022/03/01 04:40:42;;;;;;;8.10;3.77;;;;;;;1.81;46.92;101958.47;5373242;32;45054;-81
2022/03/01 04:43:45;;;;;;;9.57;3.47;;;;;;;1.90;46.35;101969.00;5408200;32;34207;-81
2022/03/01 04:46:47;;;;;;;9.90;3.80;;;;;;;2.20;45.99;101965.31;5409219;32;34606;-63
2022/03/01 04:49:49;;;;;;;9.17;4.00;;;;;;;1.52;47.40;101975.94;5382521;32;35113;-72
2022/03/01 04:52:52;;;;;;;9.20;3.73;;;;;;;1.82;46.80;101967.97;5430230;32;34759;-80
2022/03/01 04:55:54;;;;;;;8.47;3.60;;;;;;;1.51;47.15;101972.47;5396368;32;35541;-77
2022/03/01 04:58:57;;;;;;;7.80;3.30;;;;;;;1.38;47.92;101969.56;5417914;32;35407;-81
2022/03/01 05:01:59;;;;;;;8.43;3.40;;;;;;;1.61;47.22;101970.94;5388423;32;34735;-82
2022/03/01 05:05:02;;;;;;;7.10;3.37;;;;;;;1.88;46.11;101963.81;5393338;32;34935;-64
2022/03/01 05:08:05;;;;;;;8.98;3.85;;;;;;;1.93;46.28;101950.91;5407454;32;34096;-63
2022/03/01 05:11:07;;;;;;;10.03;4.37;;;;;;;1.21;47.54;101966.53;5404442;32;34225;-80
2022/03/01 05:14:10;;;;;;;10.30;4.23;;;;;;;1.54;47.00;101959.56;5389391;32;45524;-64
2022/03/01 05:17:12;;;;;;;9.87;3.90;;;;;;;1.28;47.39;101961.53;5386918;32;35439;-62
2022/03/01 05:20:16;;;;;;;9.87;4.17;;;;;;;1.46;47.65;101960.25;5413396;32;34929;-65
2022/03/01 05:23:18;;;;;;;9.65;3.87;;;;;;;1.99;46.27;101951.03;5387107;32;34302;-63
2022/03/01 05:26:20;;;;;;;12.10;4.60;;;;;;;2.01;46.08;101954.56;5403664;32;35501;-72
2022/03/01 05:29:22;;;;;;;9.77;4.13;;;;;;;1.87;46.35;101951.69;5422456;32;34592;-63
2022/03/01 05:32:24;;;;;;;8.33;3.60;;;;;;;0.89;48.97;101957.97;5394117;32;34982;-64
2022/03/01 05:35:30;;;;;;;9.03;4.03;;;;;;;1.28;48.45;101958.09;5401875;32;34633;-80
2022/03/01 05:38:32;;;;;;;11.00;4.03;;;;;;;1.29;47.90;101955.56;5417378;32;34778;-80
2022/03/01 05:41:34;;;;;;;8.20;3.70;;;;;;;1.89;46.77;101954.31;5394235;32;34562;-81
2022/03/01 05:44:36;;;;;;;12.50;4.00;;;;;;;2.18;45.93;101945.37;5402609;32;34760;-81
2022/03/01 05:47:40;;;;;;;14.77;4.23;;;;;;;1.17;47.69;101956.97;5401865;32;35212;-63
2022/03/01 05:50:42;;;;;;;9.68;4.12;;;;;;;1.71;47.23;101948.72;5404616;32;45101;-83
2022/03/01 05:53:46;;;;;;;9.03;3.90;;;;;;;1.63;46.75;101962.37;5402831;32;34733;-80
2022/03/01 05:56:48;;;;;;;;;;;;;;;1.92;46.35;101958.66;5422040;32;34621;-81
2022/03/01 05:59:51;;;;;;;14.60;4.93;;;;;;;1.83;46.34;101956.75;5400179;32;35688;-73
2022/03/01 06:02:53;;;;;;;8.27;4.17;;;;;;;2.09;45.56;101953.00;5414589;32;34792;-73
2022/03/01 06:06:00;;;;;;;9.73;3.80;;;;;;;2.31;45.40;101950.81;5419303;32;35327;-68
2022/03/01 06:09:02;;;;;;;8.70;3.80;;;;;;;2.31;44.69;101948.22;5408705;32;34085;-70
2022/03/01 06:12:05;;;;;;;9.10;4.17;;;;;;;2.60;43.60;101962.66;5433394;32;34635;-63
2022/03/01 06:15:08;;;;;;;9.63;3.93;;;;;;;2.80;43.40;101964.72;5391243;32;34580;-62
2022/03/01 06:18:11;;;;;;;12.50;4.45;;;;;;;3.29;42.80;101958.66;5405431;32;45089;-63
2022/03/01 06:21:13;;;;;;;13.10;4.40;;;;;;;4.11;40.48;101947.63;5388444;32;34085;-62
2022/03/01 06:24:15;;;;;;;10.23;3.87;;;;;;;5.43;37.80;101945.44;5413645;32;34515;-63
2022/03/01 06:27:18;;;;;;;9.95;3.70;;;;;;;5.54;37.38;101948.09;5388261;32;34015;-71
2022/03/01 06:30:22;;;;;;;12.67;4.97;;;;;;;5.40;37.38;101935.84;5393123;32;34201;-64
2022/03/01 06:33:24;;;;;;;10.43;4.10;;;;;;;5.15;37.63;101947.84;5417032;32;34565;-70
2022/03/01 06:36:26;;;;;;;9.40;4.00;;;;;;;5.33;37.12;101946.22;5395549;32;35188;-64
2022/03/01 06:39:29;;;;;;;8.80;3.60;;;;;;;6.19;36.06;101937.19;5392424;32;35500;-64
2022/03/01 06:42:31;;;;;;;11.53;4.17;;;;;;;5.31;37.28;101948.84;5388611;32;36418;-73
2022/03/01 06:45:33;;;;;;;10.87;4.37;;;;;;;6.15;36.11;101938.91;5396534;32;34054;-72
2022/03/01 06:48:36;;;;;;;11.37;4.03;;;;;;;5.60;36.40;101945.53;5412414;32;35502;-63
2022/03/01 06:51:38;;;;;;;10.63;4.63;;;;;;;5.13;37.99;101941.72;5418911;32;33962;-62
2022/03/01 06:54:40;;;;;;;11.07;4.43;;;;;;;6.96;34.30;101944.31;5418858;32;44858;-82
2022/03/01 06:57:43;;;;;;;10.60;4.53;;;;;;;7.37;33.85;101935.56;5406854;32;35505;-78
2022/03/01 07:00:45;;;;;;;13.10;5.07;;;;;;;8.63;31.52;101926.41;5414663;32;35236;-85
2022/03/01 07:03:48;;;;;;;7.20;3.60;;;;;;;8.96;30.23;101924.41;5402467;32;34375;-78
2022/03/01 07:06:50;;;;;;;9.87;3.97;;;;;;;8.39;31.28;101931.78;5404763;32;35919;-80
2022/03/01 07:09:52;;;;;;;8.27;4.00;;;;;;;9.02;30.08;101924.34;5422332;32;35801;-81
2022/03/01 07:12:57;;;;;;;8.23;3.87;;;;;;;9.83;29.09;101910.41;5421686;32;36117;-75
2022/03/01 07:15:59;;;;;;;13.33;4.50;;;;;;;9.09;30.02;101915.56;5419256;32;35303;-71
2022/03/01 07:19:02;;;;;;;8.13;3.70;;;;;;;9.60;29.28;101921.19;5414220;32;34724;-69
2022/03/01 07:22:04;;;;;;;6.80;3.33;;;;;;;8.00;31.47;101923.19;5422357;32;33975;-74
2022/03/01 07:25:07;;;;;;;8.07;3.60;;;;;;;9.43;29.27;101908.22;5400622;32;32264;-84
2022/03/01 07:28:09;;;;;;;7.35;3.10;;;;;;;7.58;32.19;101918.97;5411678;32;35202;-81
2022/03/01 07:31:12;;;;;;;6.83;3.27;;;;;;;7.65;31.61;101925.03;5413887;32;33980;-75
2022/03/01 07:34:15;;;;;;;9.10;3.78;;;;;;;7.35;31.43;101921.63;5397565;32;34025;-79
2022/03/01 07:37:18;;;;;;;9.95;3.17;;;;;;;8.15;31.25;101915.25;5406179;32;33943;-75
2022/03/01 07:40:23;;;;;;;10.33;3.73;;;;;;;8.86;29.79;101907.84;5400266;32;34210;-76
2022/03/01 07:43:25;;;;;;;7.87;3.13;;;;;;;11.23;26.79;101902.25;5405498;32;35808;-74
2022/03/01 07:46:28;;;;;;;11.40;3.70;;;;;;;10.29;27.63;101908.09;5417507;32;34449;-79
2022/03/01 07:49:30;;;;;;;18.60;6.07;;;;;;;8.59;30.50;101915.94;5419458;32;33694;-71
2022/03/01 07:52:32;;;;;;;7.60;3.57;;;;;;;9.92;27.92;101909.44;5409586;32;33835;-83
2022/03/01 07:55:34;;;;;;;12.50;3.33;;;;;;;8.61;29.75;101917.66;5415094;32;34067;-78
2022/03/01 07:58:37;;;;;;;8.03;3.30;;;;;;;8.46;30.13;101916.88;5425437;32;34408;-88
2022/03/01 08:01:39;;;;;;;13.33;4.47;;;;;;;6.40;33.75;101931.16;5418524;32;36681;-74
2022/03/01 08:04:44;;;;;;;7.80;2.93;;;;;;;5.69;34.86;101935.19;5416699;32;44928;-74
2022/03/01 08:08:05;;;;;;;8.73;3.50;;;;;;;5.50;35.50;101934.19;5413835;32;35024;-76
2022/03/01 08:11:07;;;;;;;8.07;3.33;;;;;;;4.61;37.24;101937.78;5397416;32;33982;-78
2022/03/01 08:14:16;;;;;;;11.57;3.67;;;;;;;5.06;36.54;101936.47;5409623;32;44419;-73
2022/03/01 08:17:20;;;;;;;7.25;2.97;;;;;;;5.47;35.77;101935.88;5401031;32;35261;-72
2022/03/01 08:20:22;;;;;;;10.20;3.10;;;;;;;5.23;36.29;101937.47;5421974;32;34222;-71
2022/03/01 08:23:25;;;;;;;9.73;3.83;;;;;;;5.52;35.96;101931.59;5406546;32;34803;-69
2022/03/01 08:26:32;;;;;;;7.67;2.83;;;;;;;5.62;35.74;101928.19;5410579;32;35107;-73
2022/03/01 08:29:40;;;;;;;7.30;2.80;;;;;;;6.05;34.23;101916.22;5405174;32;42937;-70
2022/03/01 08:32:43;;;;;;;7.03;2.57;;;;;;;5.15;35.73;101920.88;5394039;32;35051;-72
2022/03/01 08:35:45;;;;;;;26.40;3.67;;;;;;;5.10;35.77;101925.22;5404661;32;33602;-66
2022/03/01 08:38:47;;;;;;;10.63;3.00;;;;;;;5.28;35.29;101922.75;5405574;32;34250;-70
2022/03/01 08:41:53;;;;;;;23.83;4.60;;;;;;;5.53;35.12;101921.16;5370251;32;35501;-70
2022/03/01 08:44:56;;;;;;;6.43;2.57;;;;;;;5.95;33.88;101917.06;5403211;32;33991;-70
2022/03/01 08:48:06;;;;;;;6.33;2.53;;;;;;;5.39;34.40;101912.38;5400670;32;33968;-75
2022/03/01 08:51:08;;;;;;;7.10;2.57;;;;;;;5.48;33.58;101908.97;5413611;32;35562;-76
2022/03/01 08:54:10;;;;;;;4.77;2.50;;;;;;;6.16;32.22;101903.22;5384233;32;44686;-72
2022/03/01 08:57:14;;;;;;;7.03;2.58;;;;;;;5.78;32.99;101909.13;5410656;32;36339;-84
2022/03/01 09:00:17;;;;;;;6.62;3.00;;;;;;;6.00;32.47;101898.81;5408020;32;35173;-79
2022/03/01 09:03:20;;;;;;;4.85;1.98;;;;;;;5.87;32.68;101903.09;5401158;32;34359;-78
2022/03/01 09:06:42;;;;;;;6.27;2.30;;;;;;;5.38;32.93;101895.00;5398267;32;45831;-78
2022/03/01 09:09:44;;;;;;;6.53;2.47;;;;;;;6.77;30.98;101890.28;5402651;32;34249;-82
2022/03/01 09:12:49;;;;;;;7.40;2.40;;;;;;;6.06;31.49;101894.50;5427802;32;34243;-61
2022/03/01 09:15:52;;;;;;;5.07;2.27;;;;;;;5.98;31.47;101886.63;5413977;32;34120;-61
2022/03/01 09:18:55;;;;;;;8.30;2.57;;;;;;;5.23;32.51;101887.94;5410060;32;33990;-63
2022/03/01 09:21:57;;;;;;;7.93;2.43;;;;;;;5.66;32.39;101882.97;5404705;32;35893;-81
2022/03/01 09:25:02;;;;;;;5.37;2.23;;;;;;;6.14;31.53;101882.34;5413250;32;34051;-74
2022/03/01 09:28:06;;;;;;;6.03;2.67;;;;;;;6.54;30.62;101874.56;5420023;32;33965;-75
2022/03/01 09:31:10;;;;;;;8.97;2.30;;;;;;;6.02;30.78;101873.59;5402255;32;34641;-67
2022/03/01 09:34:12;;;;;;;10.10;2.17;;;;;;;6.43;30.02;101863.25;5433145;32;43450;-65
2022/03/01 09:37:15;;;;;;;6.03;2.27;;;;;;;5.96;29.61;101867.47;5422447;32;35569;-71
2022/03/01 09:40:17;;;;;;;6.53;2.87;;;;;;;6.09;30.19;101857.94;5389092;32;35499;-73
2022/03/01 09:43:20;;;;;;;4.63;2.37;;;;;;;7.29;28.64;101846.66;5413616;32;34088;-75
2022/03/01 09:46:23;;;;;;;5.47;2.62;;;;;;;6.73;28.58;101851.94;5407500;32;34304;-73
2022/03/01 09:49:25;;;;;;;9.77;2.50;;;;;;;5.94;29.86;101848.34;5408918;32;35338;-63
2022/03/01 09:52:27;;;;;;;6.20;2.00;;;;;;;6.73;28.77;101836.28;5410717;32;36653;-61
2022/03/01 09:55:29;;;;;;;5.57;2.40;;;;;;;6.60;28.14;101834.53;5424310;32;34154;-65
2022/03/01 09:58:32;;;;;;;6.10;2.60;;;;;;;6.31;28.88;101832.78;5411089;32;34525;-66
2022/03/01 10:01:35;;;;;;;6.72;2.25;;;;;;;6.60;28.98;101832.78;5402989;32;34564;-65
2022/03/01 10:04:49;;;;;;;6.10;2.10;;;;;;;6.49;28.91;101834.50;5409156;32;34509;-65
2022/03/01 10:07:55;;;;;;;;;;;;;;;6.41;28.89;101833.66;5407208;32;36045;-63
2022/03/01 10:10:59;;;;;;;7.87;2.53;;;;;;;6.37;29.08;101830.16;5398480;32;34214;-66
2022/03/01 10:14:02;;;;;;;6.40;2.50;;;;;;;6.09;29.78;101829.25;5412878;32;34353;-61
2022/03/01 10:17:11;;;;;;;6.93;2.70;;;;;;;6.37;29.04;101824.91;5407652;32;34122;-60
2022/03/01 10:20:18;;;;;;;9.00;2.50;;;;;;;7.94;26.43;101796.69;5396020;32;44268;-61
2022/03/01 10:23:24;;;;;;;7.27;2.50;;;;;;;9.29;24.70;101788.56;5398566;32;35756;-62
2022/03/01 10:26:30;;;;;;;5.30;2.33;;;;;;;9.57;24.28;101802.22;5417238;32;34305;-64
2022/03/01 10:29:32;;;;;;;7.90;2.60;;;;;;;13.81;19.28;101773.88;5398030;32;34350;-70
2022/03/01 10:32:34;;;;;;;6.30;2.60;;;;;;;14.15;18.58;101768.41;5413447;32;35716;-64
2022/03/01 10:35:56;;;;;;;6.50;2.33;;;;;;;14.03;18.78;101767.00;5414039;32;45125;-68
2022/03/01 10:39:02;;;;;;;10.70;2.70;;;;;;;14.56;17.71;101756.50;5401694;32;34379;-69
2022/03/01 10:42:05;;;;;;;7.97;2.67;;;;;;;14.04;18.09;101747.63;5399346;32;34143;-68
2022/03/01 10:45:09;;;;;;;6.68;2.87;;;;;;;15.13;16.77;101744.78;5420490;32;35765;-69
2022/03/01 10:48:15;;;;;;;6.50;2.60;;;;;;;16.82;15.26;101730.12;5422252;32;44578;-69
2022/03/01 10:51:20;;;;;;;6.17;2.50;;;;;;;13.66;17.68;101737.38;5407979;32;32995;-69
2022/03/01 10:54:30;;;;;;;8.30;3.03;;;;;;;12.97;18.45;101727.00;5392622;32;34207;-71
2022/03/01 10:57:33;;;;;;;5.40;2.50;;;;;;;12.54;18.71;101734.31;5411007;32;34038;-75
2022/03/01 11:00:36;;;;;;;6.00;2.67;;;;;;;14.41;17.47;101716.44;5399524;32;34285;-71
2022/03/01 11:03:39;;;;;;;8.13;2.37;;;;;;;14.64;16.90;101705.97;5402850;32;34741;-70
2022/03/01 11:06:42;;;;;;;5.00;2.70;;;;;;;15.00;16.16;101702.91;5405089;32;44526;-70
2022/03/01 11:09:45;;;;;;;12.52;2.70;;;;;;;13.95;16.81;101702.97;5400281;32;34028;-69
2022/03/01 11:12:48;;;;;;;5.85;2.20;;;;;;;15.47;15.90;101693.19;5397690;32;34411;-70
2022/03/01 11:15:56;;;;;;;6.43;2.62;;;;;;;14.49;16.49;101687.97;5398763;32;34135;-71
2022/03/01 11:19:38;;;;;;;10.77;3.40;;;;;;;16.57;14.65;101672.78;5415359;32;34327;-68
2022/03/01 11:22:45;;;;;;;10.80;3.10;;;;;;;12.51;17.72;101684.31;5402853;32;35432;-69
2022/03/01 11:25:49;;;;;;;10.07;2.90;;;;;;;13.86;17.05;101674.19;5433102;32;34026;-73
2022/03/01 11:28:56;;;;;;;4.25;2.30;;;;;;;13.70;17.14;101651.81;5418888;32;34225;-63
2022/03/01 11:31:59;;;;;;;10.10;3.10;;;;;;;12.74;17.65;101666.94;5415603;32;34220;-72
2022/03/01 11:35:02;;;;;;;6.03;2.47;;;;;;;13.70;17.45;101651.81;5410546;32;34155;-67
2022/03/01 11:38:05;;;;;;;5.40;2.55;;;;;;;13.55;16.86;101648.75;5408982;32;34170;-61
2022/03/01 11:41:20;;;;;;;7.30;2.60;;;;;;;11.66;18.83;101659.16;5405517;32;44404;-62
2022/03/01 11:44:24;;;;;;;5.53;2.57;;;;;;;10.87;19.90;101655.62;5408809;32;34230;-60
2022/03/01 11:47:28;;;;;;;9.03;2.70;;;;;;;11.98;18.73;101642.63;5400734;32;35554;-62
2022/03/01 11:50:56;;;;;;;6.03;2.50;;;;;;;12.96;17.68;101642.59;5404928;32;34182;-62
2022/03/01 11:54:01;;;;;;;5.73;2.30;;;;;;;12.82;17.09;101640.37;5399377;32;35269;-64
2022/03/01 11:57:07;;;;;;;7.97;2.30;;;;;;;13.96;16.36;101628.03;5411837;32;33924;-68
2022/03/01 12:00:13;;;;;;;7.10;2.57;;;;;;;15.62;14.91;101612.25;5407600;32;38294;-67
2022/03/01 12:03:20;;;;;;;6.57;2.60;;;;;;;16.57;13.97;101619.69;5419447;32;35216;-63
2022/03/01 12:06:23;;;;;;;6.73;2.60;;;;;;;15.01;15.48;101620.81;5406138;32;35486;-63
2022/03/01 12:09:26;;;;;;;5.73;2.30;;;;;;;13.32;16.60;101605.47;5390825;32;34226;-63
2022/03/01 12:12:37;;;;;;;6.63;2.93;;;;;;;12.77;16.78;101612.38;5410266;32;35172;-62
2022/03/01 12:15:41;;;;;;;3.57;1.90;;;;;;;12.76;16.78;101619.44;5416886;32;36647;-62
2022/03/01 12:18:43;;;;;;;7.67;2.70;;;;;;;11.75;16.86;101610.66;5411765;32;34270;-62
2022/03/01 12:21:54;;;;;;;5.33;2.40;;;;;;;12.74;16.35;101608.91;5392402;32;34335;-68
2022/03/01 12:24:56;;;;;;;6.33;2.63;;;;;;;12.14;17.04;101599.13;5415472;32;34413;-78
2022/03/01 12:28:01;;;;;;;5.17;2.60;;;;;;;11.36;17.71;101597.53;5409021;32;37843;-73
2022/03/01 12:31:09;;;;;;;7.00;2.40;;;;;;;11.95;17.08;101594.38;5414915;32;34325;-74
2022/03/01 12:34:11;;;;;;;4.13;2.17;;;;;;;13.06;16.69;101580.69;5417729;32;44254;-65
2022/03/01 12:37:14;;;;;;;5.97;2.80;;;;;;;13.85;15.15;101571.16;5414588;32;35455;-67
2022/03/01 12:40:30;;;;;;;6.70;2.63;;;;;;;12.80;15.72;101585.91;5410933;32;34093;-65
2022/03/01 12:43:32;;;;;;;16.93;6.10;;;;;;;12.54;15.73;101576.09;5402080;32;35989;-76
2022/03/01 12:46:35;;;;;;;6.07;2.47;;;;;;;11.63;17.46;101574.97;5406167;32;33681;-65
2022/03/01 12:49:37;;;;;;;4.60;2.17;;;;;;;13.16;16.19;101558.41;5416142;32;34400;-69
2022/03/01 12:52:40;;;;;;;7.13;2.70;;;;;;;13.37;15.39;101569.22;5419494;32;42988;-79
2022/03/01 12:55:47;;;;;;;10.50;2.63;;;;;;;14.11;14.98;101551.78;5404683;32;35339;-78
2022/03/01 12:58:52;;;;;;;6.93;2.57;;;;;;;15.91;13.83;101539.50;5401673;32;34165;-69
2022/03/01 13:01:59;;;;;;;6.57;2.80;;;;;;;15.68;13.96;101536.00;5413908;32;34239;-70
2022/03/01 13:05:03;;;;;;;8.10;2.93;;;;;;;16.67;13.17;101529.88;5406862;32;34192;-70
2022/03/01 13:08:15;;;;;;;5.03;2.60;;;;;;;14.93;14.32;101535.50;5414362;32;36560;-71
2022/03/01 13:11:17;;;;;;;8.20;2.70;;;;;;;18.41;11.96;101519.38;5417174;32;44562;-69
2022/03/01 13:14:21;;;;;;;5.97;2.33;;;;;;;20.08;10.29;101514.31;5414631;32;33844;-79
2022/03/01 13:17:24;;;;;;;6.40;2.40;;;;;;;19.37;10.62;101506.97;5415316;32;37637;-73
2022/03/01 13:20:26;;;;;;;3.90;2.20;;;;;;;15.95;12.54;101519.84;5408560;32;34079;-70
2022/03/01 13:23:33;;;;;;;4.85;2.53;;;;;;;16.54;12.29;101518.97;5404719;32;35239;-67
2022/03/01 13:26:36;;;;;;;6.90;2.57;;;;;;;15.01;13.11;101511.41;5400514;32;34203;-81
2022/03/01 13:29:40;;;;;;;6.62;2.60;;;;;;;14.97;13.33;101501.84;5421059;32;34101;-76
2022/03/01 13:32:42;;;;;;;6.30;2.40;;;;;;;13.99;14.41;101494.94;5428857;32;44456;-77
2022/03/01 13:35:44;;;;;;;5.10;2.10;;;;;;;14.16;14.17;101495.16;5410107;32;33942;-76
2022/03/01 13:39:09;;;;;;;5.25;2.60;;;;;;;15.98;12.79;101485.25;5423798;32;34170;-75
2022/03/01 13:42:13;;;;;;;4.53;2.27;;;;;;;14.96;13.24;101490.41;5407571;32;44548;-72
2022/03/01 13:45:15;;;;;;;6.53;4.37;;;;;;;17.48;11.66;101480.81;5405344;32;34110;-72
2022/03/01 13:48:18;;;;;;;5.70;2.30;;;;;;;17.52;10.78;101471.78;5398495;32;34070;-74
2022/03/01 13:51:20;;;;;;;5.27;2.40;;;;;;;15.28;12.78;101469.69;5393609;32;34059;-64
2022/03/01 13:54:24;;;;;;;9.50;2.60;;;;;;;16.30;11.99;101472.34;5420557;32;34147;-70
2022/03/01 13:57:32;;;;;;;6.83;2.70;;;;;;;13.45;13.93;101480.91;5407923;32;35503;-69
2022/03/01 14:00:45;;;;;;;7.63;2.73;;;;;;;15.73;12.65;101466.91;5409918;32;34849;-69
2022/03/01 14:03:48;;;;;;;5.57;2.47;;;;;;;15.07;12.63;101466.12;5411660;32;44923;-64
2022/03/01 14:06:52;;;;;;;6.53;2.15;;;;;;;18.92;10.36;101445.56;5385340;32;34063;-65
2022/03/01 14:09:54;;;;;;;9.40;2.47;;;;;;;18.81;9.67;101445.34;5413479;32;34234;-64
2022/03/01 14:13:18;;;;;;;9.18;2.28;;;;;;;16.05;11.39;101454.88;5388999;32;34078;-66
2022/03/01 14:16:25;;;;;;;8.50;2.65;;;;;;;18.93;9.72;101443.75;5406243;32;34368;-69
2022/03/01 14:19:27;;;;;;;6.97;2.17;;;;;;;13.92;13.22;101462.56;5410253;32;34027;-72